createdAt,value
2022-08-12T00:00:27.547Z,12.85
2022-08-12T00:06:08.608Z,12.80
2022-08-12T00:11:29.513Z,12.83
2022-08-12T00:16:56.656Z,12.91
2022-08-12T00:22:19.402Z,12.95
2022-08-12T00:27:43.443Z,12.99
2022-08-12T00:33:06.899Z,13.03
2022-08-12T00:38:27.641Z,13.06
2022-08-12T00:43:29.911Z,13.03
2022-08-12T00:48:32.307Z,13.01
2022-08-12T00:53:36.714Z,12.97
2022-08-12T00:58:46.329Z,12.87
2022-08-12T01:04:08.556Z,12.83
2022-08-12T01:09:34.793Z,12.82
2022-08-12T01:14:38.419Z,12.83
2022-08-12T01:19:40.850Z,12.82
2022-08-12T01:25:04.050Z,12.81
2022-08-12T01:30:09.348Z,12.78
2022-08-12T01:35:14.263Z,12.75
2022-08-12T01:40:36.149Z,12.73
2022-08-12T01:46:22.696Z,12.73
2022-08-12T01:52:19.946Z,12.69
2022-08-12T01:57:13.619Z,12.59
2022-08-12T02:03:02.109Z,12.52
2022-08-12T02:09:00.275Z,12.51
2022-08-12T02:14:28.583Z,12.50
2022-08-12T02:20:07.822Z,12.49
2022-08-12T02:25:12.333Z,12.48
2022-08-12T02:30:19.549Z,12.44
2022-08-12T02:35:24.652Z,12.44
2022-08-12T02:40:28.790Z,12.45
2022-08-12T02:45:45.609Z,12.48
2022-08-12T02:50:52.648Z,12.50
2022-08-12T02:55:54.986Z,12.52
2022-08-12T03:00:57.972Z,12.51
2022-08-12T03:06:03.533Z,12.51
2022-08-12T03:11:42.653Z,12.47
2022-08-12T03:17:14.150Z,12.43
2022-08-12T03:22:18.853Z,12.40
2022-08-12T03:27:20.812Z,12.33
2022-08-12T03:32:35.172Z,12.26
2022-08-12T03:38:12.609Z,12.25
2022-08-12T03:43:52.892Z,12.33
2022-08-12T03:49:19.644Z,12.49
2022-08-12T03:54:42.584Z,12.92
2022-08-12T04:00:03.451Z,13.64
2022-08-12T04:05:11.150Z,14.37
2022-08-12T04:10:14.467Z,15.10
2022-08-12T04:15:19.697Z,15.82
2022-08-12T04:20:22.947Z,16.53
2022-08-12T04:25:27.157Z,16.75
2022-08-12T04:30:33.587Z,16.95
2022-08-12T04:35:36.045Z,17.32
2022-08-12T04:40:38.706Z,18.17
2022-08-12T04:45:41.254Z,19.54
2022-08-12T04:50:45.529Z,20.75
2022-08-12T04:55:48.514Z,21.55
2022-08-12T05:01:04.516Z,21.91
2022-08-12T05:06:26.700Z,21.84
2022-08-12T05:11:29.602Z,21.72
2022-08-12T05:16:46.514Z,21.69
2022-08-12T05:21:48.740Z,21.32
2022-08-12T05:26:52.077Z,20.50
2022-08-12T05:31:57.019Z,19.70
2022-08-12T05:36:59.675Z,19.00
2022-08-12T05:42:01.745Z,18.50
2022-08-12T05:47:04.538Z,18.17
2022-08-12T05:52:07.092Z,18.23
2022-08-12T05:57:09.123Z,18.46
2022-08-12T06:02:13.710Z,18.75
2022-08-12T06:07:42.833Z,19.09
2022-08-12T06:12:37.964Z,19.65
2022-08-12T06:17:39.861Z,20.50
2022-08-12T06:22:45.447Z,20.96
2022-08-12T06:28:08.629Z,20.91
2022-08-12T06:33:24.826Z,20.68
2022-08-12T06:38:29.145Z,20.56
2022-08-12T06:44:04.679Z,20.55
2022-08-12T06:48:59.344Z,20.58
2022-08-12T06:54:01.913Z,20.69
2022-08-12T06:59:04.564Z,20.89
2022-08-12T07:04:33.671Z,21.10
2022-08-12T07:10:05.153Z,21.39
2022-08-12T07:14:51.706Z,21.81
2022-08-12T07:19:58.012Z,22.23
2022-08-12T07:25:21.056Z,22.63
2022-08-12T07:30:24.200Z,23.21
2022-08-12T07:35:27.679Z,23.66
2022-08-12T07:40:30.332Z,24.03
2022-08-12T07:45:32.448Z,24.31
2022-08-12T07:50:34.453Z,24.35
2022-08-12T07:55:36.782Z,24.47
2022-08-12T08:00:42.623Z,24.88
2022-08-12T08:05:46.574Z,25.27
2022-08-12T08:10:50.841Z,25.20
2022-08-12T08:16:03.403Z,25.78
2022-08-12T08:21:06.168Z,26.36
2022-08-12T08:26:10.529Z,26.68
2022-08-12T08:31:14.474Z,26.85
2022-08-12T08:36:23.881Z,26.68
2022-08-12T08:42:19.272Z,26.67
2022-08-12T08:47:13.087Z,26.95
2022-08-12T08:52:39.358Z,27.07
2022-08-12T08:57:43.741Z,27.12
2022-08-12T09:02:49.364Z,27.16
2022-08-12T09:08:13.076Z,27.32
2022-08-12T09:14:12.960Z,27.33
2022-08-12T09:19:01.839Z,27.62
2022-08-12T09:24:05.955Z,27.95
2022-08-12T09:30:11.804Z,27.85
2022-08-12T09:34:50.851Z,27.33
2022-08-12T09:40:05.579Z,27.51
2022-08-12T09:46:06.382Z,27.39
2022-08-12T09:51:02.110Z,26.93
2022-08-12T09:56:56.607Z,26.95
2022-08-12T10:01:35.204Z,27.45
2022-08-12T10:06:55.355Z,28.10
2022-08-12T10:12:25.495Z,28.75
2022-08-12T10:17:34.888Z,28.86
2022-08-12T10:23:12.727Z,28.49
2022-08-12T10:29:02.614Z,28.63
2022-08-12T10:34:26.255Z,28.21
2022-08-12T10:40:01.132Z,27.89
2022-08-12T10:45:05.136Z,28.35
2022-08-12T10:50:35.351Z,28.67
2022-08-12T10:55:56.264Z,28.92
2022-08-12T11:01:49.238Z,28.90
2022-08-12T11:07:02.495Z,29.14
2022-08-12T11:12:36.066Z,29.42
2022-08-12T11:17:44.088Z,29.59
2022-08-12T11:22:35.354Z,29.48
2022-08-12T11:27:51.341Z,29.68
2022-08-12T11:33:12.106Z,30.21
2022-08-12T11:38:14.410Z,30.38
2022-08-12T11:43:22.464Z,30.38
2022-08-12T11:48:27.037Z,30.44
2022-08-12T11:53:59.035Z,30.72
2022-08-12T12:04:28.967Z,30.20
2022-08-12T12:09:31.475Z,29.67
2022-08-12T12:14:54.765Z,29.92
2022-08-12T12:19:57.726Z,30.33
2022-08-12T12:25:19.779Z,30.02
2022-08-12T12:30:36.047Z,30.47
2022-08-12T12:36:06.504Z,31.14
2022-08-12T12:41:16.714Z,31.66
2022-08-12T12:46:19.143Z,31.99
2022-08-12T12:51:48.360Z,31.93
2022-08-12T12:56:47.957Z,31.56
2022-08-12T13:02:14.646Z,31.76
2022-08-12T13:08:01.113Z,32.02
2022-08-12T13:14:06.760Z,31.56
2022-08-12T13:18:49.618Z,31.43
2022-08-12T13:23:57.585Z,31.41
2022-08-12T13:29:00.557Z,31.89
2022-08-12T13:34:31.879Z,32.15
2022-08-12T13:39:32.892Z,32.09
2022-08-12T13:44:43.080Z,31.95
2022-08-12T13:49:59.826Z,31.81
2022-08-12T13:55:06.152Z,31.94
2022-08-12T14:00:11.100Z,32.22
2022-08-12T14:05:37.564Z,32.00
2022-08-12T14:10:50.876Z,31.48
2022-08-12T14:15:59.532Z,31.32
2022-08-12T14:21:10.135Z,31.15
2022-08-12T14:26:25.222Z,31.65
2022-08-12T14:31:32.075Z,31.96
2022-08-12T14:36:34.343Z,31.77
2022-08-12T14:41:48.680Z,31.35
2022-08-12T14:47:13.782Z,31.19
2022-08-12T14:53:23.997Z,31.15
2022-08-12T14:58:01.025Z,31.43
2022-08-12T15:03:03.861Z,31.93
2022-08-12T15:08:13.692Z,31.54
2022-08-12T15:13:20.423Z,30.59
2022-08-12T15:18:25.049Z,29.73
2022-08-12T15:23:33.240Z,29.67
2022-08-12T15:28:55.087Z,30.13
2022-08-12T15:33:57.179Z,30.93
2022-08-12T15:38:59.999Z,31.30
2022-08-12T15:44:37.152Z,31.02
2022-08-12T15:49:23.729Z,30.54
2022-08-12T15:54:33.400Z,29.65
2022-08-12T16:00:00.070Z,28.68
2022-08-12T16:05:18.805Z,28.07
2022-08-12T16:10:39.702Z,28.52
2022-08-12T16:16:01.470Z,29.14
2022-08-12T16:21:06.549Z,29.93
2022-08-12T16:26:15.218Z,30.62
2022-08-12T16:31:24.019Z,31.02
2022-08-12T16:36:26.576Z,31.16
2022-08-12T16:41:38.139Z,31.31
2022-08-12T16:46:57.959Z,31.45
2022-08-12T16:52:00.753Z,31.21
2022-08-12T16:57:05.608Z,31.02
2022-08-12T17:02:18.019Z,30.82
2022-08-12T17:07:43.570Z,30.71
2022-08-12T17:12:46.740Z,30.46
2022-08-12T17:17:50.512Z,30.24
2022-08-12T17:23:15.101Z,29.85
2022-08-12T17:28:21.366Z,28.94
2022-08-12T17:33:25.123Z,28.01
2022-08-12T17:38:28.877Z,27.40
2022-08-12T17:43:54.709Z,27.03
2022-08-12T17:48:57.915Z,26.83
2022-08-12T17:54:10.315Z,26.40
2022-08-12T17:59:47.193Z,25.77
2022-08-12T18:05:05.237Z,25.14
2022-08-12T18:10:13.448Z,24.61
2022-08-12T18:15:26.162Z,23.89
2022-08-12T18:20:32.858Z,23.42
2022-08-12T18:26:16.320Z,23.14
2022-08-12T18:31:23.773Z,22.85
2022-08-12T18:36:27.316Z,22.63
2022-08-12T18:41:33.657Z,22.41
2022-08-12T18:47:14.701Z,22.18
2022-08-12T18:52:32.161Z,21.91
2022-08-12T18:57:46.062Z,21.69
2022-08-12T19:03:38.585Z,21.47
2022-08-12T19:08:55.692Z,21.26
2022-08-12T19:14:23.926Z,21.13
2022-08-12T19:19:49.719Z,21.05
2022-08-12T19:25:18.387Z,20.94
2022-08-12T19:30:48.119Z,20.78
2022-08-12T19:36:24.242Z,20.59
2022-08-12T19:41:42.474Z,20.43
2022-08-12T19:46:51.969Z,20.26
2022-08-12T19:51:55.623Z,20.11
2022-08-12T19:56:58.625Z,19.97
2022-08-12T20:02:05.116Z,19.88
2022-08-12T20:07:23.695Z,19.80
2022-08-12T20:13:17.620Z,19.73
2022-08-12T20:18:44.249Z,19.61
2022-08-12T20:23:59.899Z,19.50
2022-08-12T20:29:05.157Z,19.39
2022-08-12T20:34:07.778Z,19.27
2022-08-12T20:39:17.477Z,19.16
2022-08-12T20:44:36.117Z,19.10
2022-08-12T20:49:43.918Z,19.11
2022-08-12T20:54:52.713Z,19.10
2022-08-12T20:59:54.829Z,19.07
2022-08-12T21:05:20.341Z,19.04
2022-08-12T21:10:26.572Z,19.02
2022-08-12T21:15:30.599Z,18.99
2022-08-12T21:20:53.208Z,18.99
2022-08-12T21:26:01.258Z,18.97
2022-08-12T21:32:34.658Z,18.93
2022-08-12T21:36:34.253Z,18.87
2022-08-12T21:41:38.139Z,18.79
2022-08-12T21:46:53.568Z,18.70
2022-08-12T21:51:56.621Z,18.64
2022-08-12T21:56:59.330Z,18.57
2022-08-12T22:02:01.217Z,18.49
2022-08-12T22:07:07.148Z,18.41
2022-08-12T22:12:29.732Z,18.33
2022-08-12T22:17:50.527Z,18.29
2022-08-12T22:22:59.610Z,18.21
2022-08-12T22:28:24.531Z,18.13
2022-08-12T22:33:26.791Z,18.04
2022-08-12T22:38:29.926Z,17.98
2022-08-12T22:44:00.522Z,17.94
2022-08-12T22:49:06.752Z,17.91
2022-08-12T22:54:36.319Z,17.89
2022-08-12T22:59:51.264Z,17.86
2022-08-12T23:04:55.304Z,17.80
2022-08-12T23:09:57.765Z,17.72
2022-08-12T23:14:59.601Z,17.63
2022-08-12T23:20:01.908Z,17.48
2022-08-12T23:25:18.878Z,17.37
2022-08-12T23:30:31.183Z,17.35
2022-08-12T23:35:45.540Z,17.37
2022-08-12T23:40:55.885Z,17.35
2022-08-12T23:46:00.828Z,17.37
2022-08-12T23:51:23.058Z,17.39
2022-08-12T23:56:35.019Z,17.39
